Ludington, MI

03:19 AM EDT del 30 Agosto 2016 (GMT -0400)
Mason County | | Change Station

Alt. 646 ft 43.96 °N, 86.41 °W | Updated 4 minutes ago

Mostly Cloudy
Molto nuvoloso
63 °F
Sembra 63 °F
N
0
Vento Variabile Vento da Nord

Oggi
Massima -- | Minima -- °F
--% Possibilità di precip.
Ieri
Massima -- | Minima -- °F
Precip. -- in
Pressione 30.16 in
Visibilità 0.8 miglia
Nuvole Molto nuvoloso 11000 ft
Punto di rugiada 63 °F
Umidità 100%
Piovosità 0.00 in
Spessore del manto nevoso Non disponibile.
7:07 AM 8:24 PM
Luna calante, 5% visible
METAR KLDM 300715Z AUTO 00000KT 3/4SM BR BKN110 17/17 A3016 RMK AO2 T01720172
Pressione 30.16 in
Visibilità 0.8 miglia
Nuvole Molto nuvoloso 11000 ft
Punto di rugiada 63 °F
Umidità 100%
Piovosità 0.00 in
Spessore del manto nevoso Non disponibile.
7:07 AM 8:24 PM
Luna calante, 5% visible
METAR KLDM 300715Z AUTO 00000KT 3/4SM BR BKN110 17/17 A3016 RMK AO2 T01720172

10-Day Weather Forecast

Almanac

Astronomia

Aug. 30, 2016 Alba Tramonto
Ora attuale
Crepuscolo civile
Crepuscolo nautico
Crepuscolo astronomico
Luna
Estensione della luce visibile
Lunghezza del giorno
Tomorrow will be .
, % of the Moon is Illuminated

Gli estremi di oggi

State Highs State Lows

Community

WunderPhotos

Upload Photos

1,935,795 foto caricate!

WunderBlog® & News

Nearby

Qualità dell'aria

  Qualità dell'aria Indice AQ Inquinante
Not available.

Profondità neve

Stazione Profondità Altitudine

Attività sismica

Città  Distanza Mag. Data & Ora
Minimo Magnitudo Mostrato è 2.5.

Temperature delle acque costiere

Località Temperatura

Stations

Stazioni meteo nelle vicinanze

Ubicazione della stazione Temp. Raffreddamento del vento Punto di rugiada Umidità Vento Precip. Alt. Aggiornato Tipo
                   

Watches & Warnings

There are currently no watches in effect.